Terminal Aerodrome Forecast
Issued by NWS Twin Cities, MN

Home | Current Version | Previous Version | Text Only | Print | Product List | Glossary On
Versions: 1 2 3 4 5 6 7 8 9 10 11 12 13 14
000
FTUS43 KMPX 200500
TAFEAU
TAF
KEAU 200520Z 2006/2106 14005KT P6SM OVC015
     FM201500 15005KT P6SM OVC010
     FM202000 16005KT P6SM OVC015=

USA.gov is the U.S. government's official web portal to all federal, state and local government web resources and services.